sensor_id;sensor_type;location;lat;lon;timestamp;P1;durP1;ratioP1;P2;durP2;ratioP2
1975;SDS011;988;48.016;7.800;2023-05-10T00:01:33;1.20;;;1.10;;
1975;SDS011;988;48.016;7.800;2023-05-10T00:03:59;2.90;;;1.57;;
1975;SDS011;988;48.016;7.800;2023-05-10T00:06:25;2.70;;;1.00;;
1975;SDS011;988;48.016;7.800;2023-05-10T00:08:50;1.63;;;1.53;;
1975;SDS011;988;48.016;7.800;2023-05-10T00:11:16;1.00;;;1.00;;
1975;SDS011;988;48.016;7.800;2023-05-10T00:13:42;1.70;;;1.30;;
1975;SDS011;988;48.016;7.800;2023-05-10T00:16:07;3.27;;;1.77;;
1975;SDS011;988;48.016;7.800;2023-05-10T00:18:33;1.00;;;1.00;;
1975;SDS011;988;48.016;7.800;2023-05-10T00:20:58;2.97;;;1.13;;
1975;SDS011;988;48.016;7.800;2023-05-10T00:23:24;2.20;;;1.20;;
1975;SDS011;988;48.016;7.800;2023-05-10T00:25:50;3.70;;;1.33;;
1975;SDS011;988;48.016;7.800;2023-05-10T00:28:15;2.30;;;1.03;;
1975;SDS011;988;48.016;7.800;2023-05-10T00:30:41;1.80;;;1.20;;
1975;SDS011;988;48.016;7.800;2023-05-10T00:33:06;4.30;;;1.00;;
1975;SDS011;988;48.016;7.800;2023-05-10T00:35:32;1.70;;;1.60;;
1975;SDS011;988;48.016;7.800;2023-05-10T00:37:57;1.17;;;0.90;;
1975;SDS011;988;48.016;7.800;2023-05-10T00:40:23;1.73;;;1.63;;
1975;SDS011;988;48.016;7.800;2023-05-10T00:42:49;4.50;;;1.70;;
1975;SDS011;988;48.016;7.800;2023-05-10T00:45:14;1.60;;;1.00;;
1975;SDS011;988;48.016;7.800;2023-05-10T00:47:40;1.47;;;1.07;;
1975;SDS011;988;48.016;7.800;2023-05-10T00:50:05;2.43;;;1.40;;
1975;SDS011;988;48.016;7.800;2023-05-10T00:52:32;1.40;;;1.30;;
1975;SDS011;988;48.016;7.800;2023-05-10T00:54:58;4.37;;;1.17;;
1975;SDS011;988;48.016;7.800;2023-05-10T00:57:23;1.43;;;1.37;;
1975;SDS011;988;48.016;7.800;2023-05-10T00:59:49;1.00;;;1.00;;
1975;SDS011;988;48.016;7.800;2023-05-10T01:02:16;1.50;;;1.40;;
1975;SDS011;988;48.016;7.800;2023-05-10T01:04:42;2.10;;;1.37;;
1975;SDS011;988;48.016;7.800;2023-05-10T01:07:08;1.37;;;1.27;;
1975;SDS011;988;48.016;7.800;2023-05-10T01:09:33;2.17;;;1.30;;
1975;SDS011;988;48.016;7.800;2023-05-10T01:11:59;1.10;;;1.03;;
1975;SDS011;988;48.016;7.800;2023-05-10T01:14:26;5.23;;;1.40;;
1975;SDS011;988;48.016;7.800;2023-05-10T01:16:53;1.40;;;1.27;;
1975;SDS011;988;48.016;7.800;2023-05-10T01:19:22;3.35;;;1.48;;
1975;SDS011;988;48.016;7.800;2023-05-10T01:30:01;1.77;;;1.20;;
1975;SDS011;988;48.016;7.800;2023-05-10T01:33:07;3.23;;;1.00;;
1975;SDS011;988;48.016;7.800;2023-05-10T01:38:49;1.30;;;1.20;;
1975;SDS011;988;48.016;7.800;2023-05-10T01:44:22;1.70;;;1.60;;
1975;SDS011;988;48.016;7.800;2023-05-10T01:46:51;1.50;;;1.38;;
1975;SDS011;988;48.016;7.800;2023-05-10T01:49:25;1.43;;;1.33;;
1975;SDS011;988;48.016;7.800;2023-05-10T01:51:54;1.10;;;1.10;;
1975;SDS011;988;48.016;7.800;2023-05-10T01:54:28;1.67;;;1.57;;
1975;SDS011;988;48.016;7.800;2023-05-10T01:56:56;2.20;;;1.80;;
1975;SDS011;988;48.016;7.800;2023-05-10T01:59:29;2.13;;;1.95;;
1975;SDS011;988;48.016;7.800;2023-05-10T02:02:01;3.17;;;1.50;;
1975;SDS011;988;48.016;7.800;2023-05-10T02:04:27;2.00;;;1.80;;
1975;SDS011;988;48.016;7.800;2023-05-10T02:06:54;1.80;;;1.40;;
1975;SDS011;988;48.016;7.800;2023-05-10T02:09:20;1.58;;;1.48;;
1975;SDS011;988;48.016;7.800;2023-05-10T02:11:48;5.43;;;1.63;;
1975;SDS011;988;48.016;7.800;2023-05-10T02:14:15;1.97;;;1.33;;
1975;SDS011;988;48.016;7.800;2023-05-10T02:16:41;3.43;;;2.07;;
1975;SDS011;988;48.016;7.800;2023-05-10T02:19:08;2.00;;;1.90;;
1975;SDS011;988;48.016;7.800;2023-05-10T02:21:35;2.00;;;1.87;;
1975;SDS011;988;48.016;7.800;2023-05-10T02:24:02;2.20;;;1.58;;
1975;SDS011;988;48.016;7.800;2023-05-10T02:26:29;1.90;;;1.80;;
1975;SDS011;988;48.016;7.800;2023-05-10T02:28:56;2.87;;;1.97;;
1975;SDS011;988;48.016;7.800;2023-05-10T02:31:23;1.50;;;1.40;;
1975;SDS011;988;48.016;7.800;2023-05-10T02:33:49;1.83;;;1.40;;
1975;SDS011;988;48.016;7.800;2023-05-10T02:36:16;1.70;;;1.60;;
1975;SDS011;988;48.016;7.800;2023-05-10T02:38:42;1.70;;;1.60;;
1975;SDS011;988;48.016;7.800;2023-05-10T02:41:09;3.13;;;1.83;;
1975;SDS011;988;48.016;7.800;2023-05-10T02:43:36;2.10;;;1.90;;
1975;SDS011;988;48.016;7.800;2023-05-10T02:46:04;1.80;;;1.70;;
1975;SDS011;988;48.016;7.800;2023-05-10T02:48:30;1.70;;;1.60;;
1975;SDS011;988;48.016;7.800;2023-05-10T02:50:56;1.50;;;1.40;;
1975;SDS011;988;48.016;7.800;2023-05-10T02:53:33;2.67;;;1.50;;
1975;SDS011;988;48.016;7.800;2023-05-10T02:56:01;1.60;;;1.50;;
1975;SDS011;988;48.016;7.800;2023-05-10T02:58:33;1.73;;;1.60;;
1975;SDS011;988;48.016;7.800;2023-05-10T03:00:59;1.70;;;1.60;;
1975;SDS011;988;48.016;7.800;2023-05-10T03:03:25;1.97;;;1.77;;
1975;SDS011;988;48.016;7.800;2023-05-10T03:05:51;1.80;;;1.70;;
1975;SDS011;988;48.016;7.800;2023-05-10T03:08:20;1.97;;;1.60;;
1975;SDS011;988;48.016;7.800;2023-05-10T03:13:46;1.80;;;1.70;;
1975;SDS011;988;48.016;7.800;2023-05-10T03:16:22;1.80;;;1.70;;
1975;SDS011;988;48.016;7.800;2023-05-10T03:21:20;2.23;;;1.60;;
1975;SDS011;988;48.016;7.800;2023-05-10T03:23:56;3.27;;;1.80;;
1975;SDS011;988;48.016;7.800;2023-05-10T03:26:28;3.03;;;2.10;;
1975;SDS011;988;48.016;7.800;2023-05-10T03:28:54;2.20;;;2.10;;
1975;SDS011;988;48.016;7.800;2023-05-10T03:31:21;1.90;;;1.80;;
1975;SDS011;988;48.016;7.800;2023-05-10T03:33:47;2.70;;;2.20;;
1975;SDS011;988;48.016;7.800;2023-05-10T03:36:14;2.38;;;2.28;;
1975;SDS011;988;48.016;7.800;2023-05-10T03:38:39;2.67;;;2.43;;
1975;SDS011;988;48.016;7.800;2023-05-10T03:41:05;1.73;;;1.63;;
1975;SDS011;988;48.016;7.800;2023-05-10T03:43:30;2.13;;;1.77;;
1975;SDS011;988;48.016;7.800;2023-05-10T03:45:56;5.73;;;2.03;;
1975;SDS011;988;48.016;7.800;2023-05-10T03:48:22;1.80;;;1.70;;
1975;SDS011;988;48.016;7.800;2023-05-10T03:50:47;2.77;;;1.97;;
1975;SDS011;988;48.016;7.800;2023-05-10T03:53:14;2.13;;;1.93;;
1975;SDS011;988;48.016;7.800;2023-05-10T03:55:40;2.13;;;1.90;;
1975;SDS011;988;48.016;7.800;2023-05-10T03:58:05;3.47;;;1.80;;
1975;SDS011;988;48.016;7.800;2023-05-10T04:00:31;2.33;;;1.77;;
1975;SDS011;988;48.016;7.800;2023-05-10T04:02:57;4.60;;;1.80;;
1975;SDS011;988;48.016;7.800;2023-05-10T04:05:23;2.63;;;2.47;;
1975;SDS011;988;48.016;7.800;2023-05-10T04:07:48;2.47;;;1.67;;
1975;SDS011;988;48.016;7.800;2023-05-10T04:10:14;3.13;;;2.00;;
1975;SDS011;988;48.016;7.800;2023-05-10T04:12:41;1.98;;;1.88;;
1975;SDS011;988;48.016;7.800;2023-05-10T04:15:06;3.13;;;1.60;;
1975;SDS011;988;48.016;7.800;2023-05-10T04:17:33;1.80;;;1.70;;
1975;SDS011;988;48.016;7.800;2023-05-10T04:19:58;1.80;;;1.70;;
1975;SDS011;988;48.016;7.800;2023-05-10T04:22:24;3.63;;;1.97;;
1975;SDS011;988;48.016;7.800;2023-05-10T04:24:49;2.23;;;2.03;;
1975;SDS011;988;48.016;7.800;2023-05-10T04:27:15;1.90;;;1.80;;
1975;SDS011;988;48.016;7.800;2023-05-10T04:29:41;1.90;;;1.80;;
1975;SDS011;988;48.016;7.800;2023-05-10T04:32:06;2.03;;;1.93;;
1975;SDS011;988;48.016;7.800;2023-05-10T04:34:32;2.30;;;2.20;;
1975;SDS011;988;48.016;7.800;2023-05-10T04:36:59;2.33;;;2.13;;
1975;SDS011;988;48.016;7.800;2023-05-10T04:39:24;2.93;;;1.77;;
1975;SDS011;988;48.016;7.800;2023-05-10T04:41:50;4.07;;;2.30;;
1975;SDS011;988;48.016;7.800;2023-05-10T04:44:15;2.40;;;2.30;;
1975;SDS011;988;48.016;7.800;2023-05-10T04:46:41;3.93;;;2.73;;
1975;SDS011;988;48.016;7.800;2023-05-10T04:49:06;2.60;;;2.40;;
1975;SDS011;988;48.016;7.800;2023-05-10T04:51:32;2.73;;;2.30;;
1975;SDS011;988;48.016;7.800;2023-05-10T04:53:58;5.23;;;2.40;;
1975;SDS011;988;48.016;7.800;2023-05-10T04:56:23;2.37;;;2.17;;
1975;SDS011;988;48.016;7.800;2023-05-10T04:58:49;3.30;;;2.00;;
1975;SDS011;988;48.016;7.800;2023-05-10T05:01:14;3.50;;;2.17;;
1975;SDS011;988;48.016;7.800;2023-05-10T05:03:40;2.63;;;2.43;;
1975;SDS011;988;48.016;7.800;2023-05-10T05:06:06;3.40;;;2.57;;
1975;SDS011;988;48.016;7.800;2023-05-10T05:08:33;3.50;;;2.70;;
1975;SDS011;988;48.016;7.800;2023-05-10T05:10:58;2.40;;;2.00;;
1975;SDS011;988;48.016;7.800;2023-05-10T05:13:24;2.93;;;2.33;;
1975;SDS011;988;48.016;7.800;2023-05-10T05:15:50;2.67;;;2.47;;
1975;SDS011;988;48.016;7.800;2023-05-10T05:18:16;2.00;;;1.90;;
1975;SDS011;988;48.016;7.800;2023-05-10T05:20:41;3.47;;;2.73;;
1975;SDS011;988;48.016;7.800;2023-05-10T05:23:07;2.00;;;1.90;;
1975;SDS011;988;48.016;7.800;2023-05-10T05:25:32;2.30;;;2.00;;
1975;SDS011;988;48.016;7.800;2023-05-10T05:27:58;3.47;;;2.63;;
1975;SDS011;988;48.016;7.800;2023-05-10T05:30:23;2.23;;;2.03;;
1975;SDS011;988;48.016;7.800;2023-05-10T05:32:49;2.37;;;1.83;;
1975;SDS011;988;48.016;7.800;2023-05-10T05:35:14;2.47;;;2.37;;
1975;SDS011;988;48.016;7.800;2023-05-10T05:37:40;4.30;;;2.10;;
1975;SDS011;988;48.016;7.800;2023-05-10T05:40:06;1.80;;;1.70;;
1975;SDS011;988;48.016;7.800;2023-05-10T05:42:32;2.63;;;2.07;;
1975;SDS011;988;48.016;7.800;2023-05-10T05:44:58;1.80;;;1.70;;
1975;SDS011;988;48.016;7.800;2023-05-10T05:47:24;2.33;;;2.13;;
1975;SDS011;988;48.016;7.800;2023-05-10T05:49:49;2.10;;;1.87;;
1975;SDS011;988;48.016;7.800;2023-05-10T05:52:15;4.83;;;2.20;;
1975;SDS011;988;48.016;7.800;2023-05-10T05:54:41;10.77;;;2.23;;
1975;SDS011;988;48.016;7.800;2023-05-10T05:57:06;2.60;;;2.40;;
1975;SDS011;988;48.016;7.800;2023-05-10T05:59:32;1.93;;;1.83;;
1975;SDS011;988;48.016;7.800;2023-05-10T06:01:58;2.20;;;2.10;;
1975;SDS011;988;48.016;7.800;2023-05-10T06:04:23;2.23;;;2.13;;
1975;SDS011;988;48.016;7.800;2023-05-10T06:06:49;2.20;;;2.00;;
1975;SDS011;988;48.016;7.800;2023-05-10T06:09:14;2.63;;;2.43;;
1975;SDS011;988;48.016;7.800;2023-05-10T06:11:40;2.78;;;1.90;;
1975;SDS011;988;48.016;7.800;2023-05-10T06:14:06;1.73;;;1.63;;
1975;SDS011;988;48.016;7.800;2023-05-10T06:16:33;3.80;;;2.30;;
1975;SDS011;988;48.016;7.800;2023-05-10T06:18:59;2.30;;;2.20;;
1975;SDS011;988;48.016;7.800;2023-05-10T06:21:24;2.17;;;2.03;;
1975;SDS011;988;48.016;7.800;2023-05-10T06:23:50;2.13;;;1.90;;
1975;SDS011;988;48.016;7.800;2023-05-10T06:26:16;1.70;;;1.60;;
1975;SDS011;988;48.016;7.800;2023-05-10T06:28:41;2.40;;;1.90;;
1975;SDS011;988;48.016;7.800;2023-05-10T06:31:07;2.50;;;1.80;;
1975;SDS011;988;48.016;7.800;2023-05-10T06:33:33;3.03;;;1.87;;
1975;SDS011;988;48.016;7.800;2023-05-10T06:35:59;2.35;;;1.80;;
1975;SDS011;988;48.016;7.800;2023-05-10T06:38:24;2.43;;;1.67;;
1975;SDS011;988;48.016;7.800;2023-05-10T06:40:50;3.80;;;1.90;;
1975;SDS011;988;48.016;7.800;2023-05-10T06:43:16;1.73;;;1.63;;
1975;SDS011;988;48.016;7.800;2023-05-10T06:45:42;2.40;;;2.20;;
1975;SDS011;988;48.016;7.800;2023-05-10T06:48:07;2.80;;;2.17;;
1975;SDS011;988;48.016;7.800;2023-05-10T06:50:33;2.47;;;2.27;;
1975;SDS011;988;48.016;7.800;2023-05-10T06:52:59;6.63;;;2.20;;
1975;SDS011;988;48.016;7.800;2023-05-10T06:55:25;7.35;;;3.05;;
1975;SDS011;988;48.016;7.800;2023-05-10T06:57:51;2.92;;;2.72;;
1975;SDS011;988;48.016;7.800;2023-05-10T07:00:17;2.50;;;2.30;;
1975;SDS011;988;48.016;7.800;2023-05-10T07:02:43;4.05;;;2.95;;
1975;SDS011;988;48.016;7.800;2023-05-10T07:05:09;3.10;;;2.60;;
1975;SDS011;988;48.016;7.800;2023-05-10T07:07:35;3.80;;;2.80;;
1975;SDS011;988;48.016;7.800;2023-05-10T07:10:00;2.80;;;2.20;;
1975;SDS011;988;48.016;7.800;2023-05-10T07:12:26;3.90;;;2.20;;
1975;SDS011;988;48.016;7.800;2023-05-10T07:14:52;7.50;;;2.30;;
1975;SDS011;988;48.016;7.800;2023-05-10T07:17:18;6.53;;;2.60;;
1975;SDS011;988;48.016;7.800;2023-05-10T07:19:43;4.10;;;2.37;;
1975;SDS011;988;48.016;7.800;2023-05-10T07:22:09;2.27;;;2.07;;
1975;SDS011;988;48.016;7.800;2023-05-10T07:24:35;2.40;;;2.20;;
1975;SDS011;988;48.016;7.800;2023-05-10T07:27:00;4.43;;;2.50;;
1975;SDS011;988;48.016;7.800;2023-05-10T07:29:26;5.07;;;2.90;;
1975;SDS011;988;48.016;7.800;2023-05-10T07:31:51;3.30;;;3.03;;
1975;SDS011;988;48.016;7.800;2023-05-10T07:34:18;3.27;;;3.07;;
1975;SDS011;988;48.016;7.800;2023-05-10T07:36:43;4.17;;;3.87;;
1975;SDS011;988;48.016;7.800;2023-05-10T07:39:09;5.03;;;4.60;;
1975;SDS011;988;48.016;7.800;2023-05-10T07:41:35;7.80;;;7.30;;
1975;SDS011;988;48.016;7.800;2023-05-10T07:44:02;8.10;;;7.40;;
1975;SDS011;988;48.016;7.800;2023-05-10T07:46:28;8.63;;;8.03;;
1975;SDS011;988;48.016;7.800;2023-05-10T07:48:54;7.97;;;7.60;;
1975;SDS011;988;48.016;7.800;2023-05-10T07:51:20;8.13;;;7.70;;
1975;SDS011;988;48.016;7.800;2023-05-10T07:53:46;8.33;;;7.93;;
1975;SDS011;988;48.016;7.800;2023-05-10T07:56:22;9.33;;;8.83;;
1975;SDS011;988;48.016;7.800;2023-05-10T07:58:50;11.20;;;10.40;;
1975;SDS011;988;48.016;7.800;2023-05-10T08:01:16;11.43;;;10.83;;
1975;SDS011;988;48.016;7.800;2023-05-10T08:03:42;11.90;;;11.30;;
1975;SDS011;988;48.016;7.800;2023-05-10T08:06:08;13.60;;;12.37;;
1975;SDS011;988;48.016;7.800;2023-05-10T08:08:33;12.53;;;11.73;;
1975;SDS011;988;48.016;7.800;2023-05-10T08:10:59;12.37;;;11.80;;
1975;SDS011;988;48.016;7.800;2023-05-10T08:13:25;11.80;;;11.30;;
1975;SDS011;988;48.016;7.800;2023-05-10T08:15:51;12.00;;;11.40;;
1975;SDS011;988;48.016;7.800;2023-05-10T08:18:18;12.23;;;11.53;;
1975;SDS011;988;48.016;7.800;2023-05-10T08:20:44;12.67;;;12.00;;
1975;SDS011;988;48.016;7.800;2023-05-10T08:23:10;11.53;;;11.03;;
1975;SDS011;988;48.016;7.800;2023-05-10T08:25:37;11.40;;;10.80;;
1975;SDS011;988;48.016;7.800;2023-05-10T08:28:02;12.17;;;11.57;;
1975;SDS011;988;48.016;7.800;2023-05-10T08:30:28;14.13;;;13.13;;
1975;SDS011;988;48.016;7.800;2023-05-10T08:32:53;14.50;;;13.80;;
1975;SDS011;988;48.016;7.800;2023-05-10T08:35:19;14.80;;;14.07;;
1975;SDS011;988;48.016;7.800;2023-05-10T08:37:45;13.70;;;13.00;;
1975;SDS011;988;48.016;7.800;2023-05-10T08:40:11;14.40;;;13.30;;
1975;SDS011;988;48.016;7.800;2023-05-10T08:42:38;14.10;;;13.50;;
1975;SDS011;988;48.016;7.800;2023-05-10T08:45:07;14.77;;;13.80;;
1975;SDS011;988;48.016;7.800;2023-05-10T08:47:34;14.90;;;14.07;;
1975;SDS011;988;48.016;7.800;2023-05-10T08:50:03;14.07;;;13.47;;
1975;SDS011;988;48.016;7.800;2023-05-10T08:52:29;16.03;;;14.73;;
1975;SDS011;988;48.016;7.800;2023-05-10T08:54:55;14.30;;;13.50;;
1975;SDS011;988;48.016;7.800;2023-05-10T08:57:21;14.77;;;13.93;;
1975;SDS011;988;48.016;7.800;2023-05-10T08:59:47;15.47;;;14.67;;
1975;SDS011;988;48.016;7.800;2023-05-10T09:02:13;16.43;;;15.53;;
1975;SDS011;988;48.016;7.800;2023-05-10T09:04:39;15.50;;;14.60;;
1975;SDS011;988;48.016;7.800;2023-05-10T09:07:06;14.83;;;13.97;;
1975;SDS011;988;48.016;7.800;2023-05-10T09:09:32;14.10;;;13.50;;
1975;SDS011;988;48.016;7.800;2023-05-10T09:11:58;16.40;;;15.43;;
1975;SDS011;988;48.016;7.800;2023-05-10T09:14:24;14.40;;;13.60;;
1975;SDS011;988;48.016;7.800;2023-05-10T09:16:50;14.27;;;13.47;;
1975;SDS011;988;48.016;7.800;2023-05-10T09:19:16;13.73;;;13.13;;
1975;SDS011;988;48.016;7.800;2023-05-10T09:21:42;14.43;;;13.47;;
1975;SDS011;988;48.016;7.800;2023-05-10T09:24:08;16.97;;;15.90;;
1975;SDS011;988;48.016;7.800;2023-05-10T09:26:34;15.37;;;14.57;;
1975;SDS011;988;48.016;7.800;2023-05-10T09:29:01;15.77;;;14.90;;
1975;SDS011;988;48.016;7.800;2023-05-10T09:32:10;15.40;;;14.60;;
1975;SDS011;988;48.016;7.800;2023-05-10T09:34:18;15.97;;;15.17;;
1975;SDS011;988;48.016;7.800;2023-05-10T09:36:51;15.50;;;14.53;;
1975;SDS011;988;48.016;7.800;2023-05-10T09:39:25;16.07;;;15.27;;
1975;SDS011;988;48.016;7.800;2023-05-10T09:41:55;16.03;;;15.23;;
1975;SDS011;988;48.016;7.800;2023-05-10T09:44:22;16.73;;;15.90;;
1975;SDS011;988;48.016;7.800;2023-05-10T09:46:48;16.73;;;15.53;;
1975;SDS011;988;48.016;7.800;2023-05-10T09:49:15;17.57;;;16.50;;
1975;SDS011;988;48.016;7.800;2023-05-10T09:51:42;17.33;;;16.33;;
1975;SDS011;988;48.016;7.800;2023-05-10T09:54:11;16.90;;;16.10;;
1975;SDS011;988;48.016;7.800;2023-05-10T09:56:39;18.70;;;17.70;;
1975;SDS011;988;48.016;7.800;2023-05-10T09:59:05;18.23;;;17.10;;
1975;SDS011;988;48.016;7.800;2023-05-10T10:01:35;17.90;;;16.93;;
1975;SDS011;988;48.016;7.800;2023-05-10T10:04:05;18.27;;;17.23;;
1975;SDS011;988;48.016;7.800;2023-05-10T10:06:39;17.80;;;17.00;;
1975;SDS011;988;48.016;7.800;2023-05-10T10:09:05;17.90;;;17.10;;
1975;SDS011;988;48.016;7.800;2023-05-10T10:11:33;18.27;;;17.20;;
1975;SDS011;988;48.016;7.800;2023-05-10T10:14:04;17.20;;;16.40;;
1975;SDS011;988;48.016;7.800;2023-05-10T10:16:30;18.50;;;17.57;;
1975;SDS011;988;48.016;7.800;2023-05-10T10:18:56;18.00;;;17.03;;
1975;SDS011;988;48.016;7.800;2023-05-10T10:21:22;18.53;;;17.53;;
1975;SDS011;988;48.016;7.800;2023-05-10T10:23:48;17.93;;;17.03;;
1975;SDS011;988;48.016;7.800;2023-05-10T10:26:15;17.90;;;16.90;;
1975;SDS011;988;48.016;7.800;2023-05-10T10:31:32;17.93;;;17.13;;
1975;SDS011;988;48.016;7.800;2023-05-10T10:34:10;17.50;;;16.50;;
1975;SDS011;988;48.016;7.800;2023-05-10T10:36:45;18.20;;;17.10;;
1975;SDS011;988;48.016;7.800;2023-05-10T10:39:12;18.50;;;17.60;;
1975;SDS011;988;48.016;7.800;2023-05-10T10:41:52;18.47;;;17.57;;
1975;SDS011;988;48.016;7.800;2023-05-10T10:49:47;18.47;;;17.07;;
1975;SDS011;988;48.016;7.800;2023-05-10T10:54:52;16.37;;;15.57;;
1975;SDS011;988;48.016;7.800;2023-05-10T10:57:27;16.17;;;15.37;;
1975;SDS011;988;48.016;7.800;2023-05-10T11:00:38;16.27;;;15.30;;
1975;SDS011;988;48.016;7.800;2023-05-10T11:05:42;17.10;;;16.00;;
1975;SDS011;988;48.016;7.800;2023-05-10T11:15:57;17.33;;;15.97;;
1975;SDS011;988;48.016;7.800;2023-05-10T11:21:00;16.57;;;15.40;;
1975;SDS011;988;48.016;7.800;2023-05-10T11:23:31;15.60;;;14.80;;
1975;SDS011;988;48.016;7.800;2023-05-10T11:25:58;16.00;;;15.20;;
1975;SDS011;988;48.016;7.800;2023-05-10T11:28:26;15.40;;;14.70;;
1975;SDS011;988;48.016;7.800;2023-05-10T11:30:53;15.43;;;14.63;;
1975;SDS011;988;48.016;7.800;2023-05-10T11:33:19;15.80;;;14.80;;
1975;SDS011;988;48.016;7.800;2023-05-10T11:35:45;15.17;;;14.27;;
1975;SDS011;988;48.016;7.800;2023-05-10T11:38:11;15.40;;;14.60;;
1975;SDS011;988;48.016;7.800;2023-05-10T11:40:38;16.40;;;15.50;;
1975;SDS011;988;48.016;7.800;2023-05-10T11:43:04;15.90;;;15.00;;
1975;SDS011;988;48.016;7.800;2023-05-10T11:45:33;15.80;;;14.80;;
1975;SDS011;988;48.016;7.800;2023-05-10T11:47:59;15.80;;;14.60;;
1975;SDS011;988;48.016;7.800;2023-05-10T11:50:25;15.97;;;15.17;;
1975;SDS011;988;48.016;7.800;2023-05-10T11:52:52;16.20;;;15.27;;
1975;SDS011;988;48.016;7.800;2023-05-10T11:55:19;16.33;;;15.50;;
1975;SDS011;988;48.016;7.800;2023-05-10T11:57:44;17.20;;;15.90;;
1975;SDS011;988;48.016;7.800;2023-05-10T12:00:11;16.07;;;15.33;;
1975;SDS011;988;48.016;7.800;2023-05-10T12:02:37;16.43;;;15.60;;
1975;SDS011;988;48.016;7.800;2023-05-10T12:05:04;16.10;;;15.20;;
1975;SDS011;988;48.016;7.800;2023-05-10T12:07:30;15.87;;;15.07;;
1975;SDS011;988;48.016;7.800;2023-05-10T12:10:12;16.50;;;15.53;;
1975;SDS011;988;48.016;7.800;2023-05-10T12:12:44;15.90;;;15.00;;
1975;SDS011;988;48.016;7.800;2023-05-10T12:17:43;15.13;;;14.43;;
1975;SDS011;988;48.016;7.800;2023-05-10T12:20:28;15.30;;;14.40;;
1975;SDS011;988;48.016;7.800;2023-05-10T12:22:55;15.40;;;14.50;;
1975;SDS011;988;48.016;7.800;2023-05-10T12:25:23;15.83;;;14.87;;
1975;SDS011;988;48.016;7.800;2023-05-10T12:27:55;15.67;;;14.90;;
1975;SDS011;988;48.016;7.800;2023-05-10T12:30:23;16.00;;;15.00;;
1975;SDS011;988;48.016;7.800;2023-05-10T12:32:49;15.73;;;14.07;;
1975;SDS011;988;48.016;7.800;2023-05-10T12:35:16;14.67;;;14.03;;
1975;SDS011;988;48.016;7.800;2023-05-10T12:37:42;15.43;;;14.53;;
1975;SDS011;988;48.016;7.800;2023-05-10T12:40:08;15.50;;;14.60;;
1975;SDS011;988;48.016;7.800;2023-05-10T12:42:36;13.80;;;13.17;;
1975;SDS011;988;48.016;7.800;2023-05-10T12:45:03;14.53;;;13.83;;
1975;SDS011;988;48.016;7.800;2023-05-10T12:47:30;13.27;;;12.37;;
1975;SDS011;988;48.016;7.800;2023-05-10T12:49:56;12.77;;;11.87;;
1975;SDS011;988;48.016;7.800;2023-05-10T12:52:22;11.70;;;11.10;;
1975;SDS011;988;48.016;7.800;2023-05-10T12:54:47;11.70;;;11.20;;
1975;SDS011;988;48.016;7.800;2023-05-10T12:57:14;14.77;;;11.80;;
1975;SDS011;988;48.016;7.800;2023-05-10T12:59:39;12.40;;;11.83;;
1975;SDS011;988;48.016;7.800;2023-05-10T13:02:05;13.30;;;12.60;;
1975;SDS011;988;48.016;7.800;2023-05-10T13:04:31;12.80;;;12.20;;
1975;SDS011;988;48.016;7.800;2023-05-10T13:06:57;14.40;;;13.60;;
1975;SDS011;988;48.016;7.800;2023-05-10T13:09:24;13.57;;;12.97;;
1975;SDS011;988;48.016;7.800;2023-05-10T13:11:50;14.87;;;14.00;;
1975;SDS011;988;48.016;7.800;2023-05-10T13:14:16;14.53;;;13.83;;
1975;SDS011;988;48.016;7.800;2023-05-10T13:16:41;14.53;;;13.73;;
1975;SDS011;988;48.016;7.800;2023-05-10T13:19:07;13.33;;;12.83;;
1975;SDS011;988;48.016;7.800;2023-05-10T13:21:32;13.37;;;12.77;;
1975;SDS011;988;48.016;7.800;2023-05-10T13:23:58;13.37;;;12.77;;
1975;SDS011;988;48.016;7.800;2023-05-10T13:26:25;13.70;;;13.10;;
1975;SDS011;988;48.016;7.800;2023-05-10T13:28:51;13.20;;;12.60;;
1975;SDS011;988;48.016;7.800;2023-05-10T13:31:16;13.03;;;12.53;;
1975;SDS011;988;48.016;7.800;2023-05-10T13:33:44;13.77;;;13.17;;
1975;SDS011;988;48.016;7.800;2023-05-10T13:36:09;14.30;;;13.70;;
1975;SDS011;988;48.016;7.800;2023-05-10T13:38:35;15.47;;;14.67;;
1975;SDS011;988;48.016;7.800;2023-05-10T13:41:00;15.20;;;14.50;;
1975;SDS011;988;48.016;7.800;2023-05-10T13:43:26;15.73;;;14.93;;
1975;SDS011;988;48.016;7.800;2023-05-10T13:45:52;15.87;;;15.17;;
1975;SDS011;988;48.016;7.800;2023-05-10T13:48:17;16.20;;;15.50;;
1975;SDS011;988;48.016;7.800;2023-05-10T13:50:43;16.10;;;15.40;;
1975;SDS011;988;48.016;7.800;2023-05-10T13:53:08;15.87;;;15.00;;
1975;SDS011;988;48.016;7.800;2023-05-10T13:55:34;16.30;;;15.30;;
1975;SDS011;988;48.016;7.800;2023-05-10T13:58:00;15.77;;;15.07;;
1975;SDS011;988;48.016;7.800;2023-05-10T14:00:26;15.83;;;15.13;;
1975;SDS011;988;48.016;7.800;2023-05-10T14:02:52;15.60;;;14.90;;
1975;SDS011;988;48.016;7.800;2023-05-10T14:05:17;15.07;;;14.37;;
1975;SDS011;988;48.016;7.800;2023-05-10T14:07:43;15.30;;;14.60;;
1975;SDS011;988;48.016;7.800;2023-05-10T14:10:08;16.00;;;15.30;;
1975;SDS011;988;48.016;7.800;2023-05-10T14:12:34;15.53;;;14.83;;
1975;SDS011;988;48.016;7.800;2023-05-10T14:15:00;16.70;;;15.90;;
1975;SDS011;988;48.016;7.800;2023-05-10T14:17:26;15.60;;;14.90;;
1975;SDS011;988;48.016;7.800;2023-05-10T14:19:52;15.80;;;15.10;;
1975;SDS011;988;48.016;7.800;2023-05-10T14:22:17;14.70;;;14.10;;
1975;SDS011;988;48.016;7.800;2023-05-10T14:24:43;14.80;;;14.10;;
1975;SDS011;988;48.016;7.800;2023-05-10T14:27:11;14.77;;;14.17;;
1975;SDS011;988;48.016;7.800;2023-05-10T14:29:37;14.40;;;13.80;;
1975;SDS011;988;48.016;7.800;2023-05-10T14:32:03;15.07;;;14.27;;
1975;SDS011;988;48.016;7.800;2023-05-10T14:34:28;15.10;;;14.40;;
1975;SDS011;988;48.016;7.800;2023-05-10T14:36:54;15.10;;;14.50;;
1975;SDS011;988;48.016;7.800;2023-05-10T14:39:20;15.20;;;14.50;;
1975;SDS011;988;48.016;7.800;2023-05-10T14:41:46;14.50;;;13.90;;
1975;SDS011;988;48.016;7.800;2023-05-10T14:44:12;14.03;;;13.50;;
1975;SDS011;988;48.016;7.800;2023-05-10T14:46:38;14.40;;;13.80;;
1975;SDS011;988;48.016;7.800;2023-05-10T14:49:04;14.47;;;13.80;;
1975;SDS011;988;48.016;7.800;2023-05-10T14:51:30;15.30;;;14.70;;
1975;SDS011;988;48.016;7.800;2023-05-10T14:53:56;15.70;;;15.00;;
1975;SDS011;988;48.016;7.800;2023-05-10T14:56:22;14.70;;;14.03;;
1975;SDS011;988;48.016;7.800;2023-05-10T14:58:49;14.43;;;13.83;;
1975;SDS011;988;48.016;7.800;2023-05-10T15:01:14;15.00;;;14.30;;
1975;SDS011;988;48.016;7.800;2023-05-10T15:03:40;14.40;;;13.80;;
1975;SDS011;988;48.016;7.800;2023-05-10T15:06:08;15.27;;;14.57;;
1975;SDS011;988;48.016;7.800;2023-05-10T15:08:33;14.30;;;13.60;;
1975;SDS011;988;48.016;7.800;2023-05-10T15:10:59;14.93;;;14.20;;
1975;SDS011;988;48.016;7.800;2023-05-10T15:13:25;14.63;;;14.03;;
1975;SDS011;988;48.016;7.800;2023-05-10T15:15:50;14.57;;;13.57;;
1975;SDS011;988;48.016;7.800;2023-05-10T15:18:16;14.03;;;13.30;;
1975;SDS011;988;48.016;7.800;2023-05-10T15:20:41;14.17;;;13.37;;
1975;SDS011;988;48.016;7.800;2023-05-10T15:23:07;13.83;;;13.23;;
1975;SDS011;988;48.016;7.800;2023-05-10T15:25:33;15.67;;;14.97;;
1975;SDS011;988;48.016;7.800;2023-05-10T15:28:02;15.27;;;14.00;;
1975;SDS011;988;48.016;7.800;2023-05-10T15:30:28;14.87;;;14.07;;
1975;SDS011;988;48.016;7.800;2023-05-10T15:32:54;14.57;;;13.97;;
1975;SDS011;988;48.016;7.800;2023-05-10T15:35:20;14.30;;;13.70;;
1975;SDS011;988;48.016;7.800;2023-05-10T15:37:47;14.87;;;14.27;;
1975;SDS011;988;48.016;7.800;2023-05-10T15:40:13;14.50;;;13.90;;
1975;SDS011;988;48.016;7.800;2023-05-10T15:42:39;14.90;;;14.30;;
1975;SDS011;988;48.016;7.800;2023-05-10T15:45:04;15.33;;;14.53;;
1975;SDS011;988;48.016;7.800;2023-05-10T15:47:31;15.50;;;14.70;;
1975;SDS011;988;48.016;7.800;2023-05-10T15:49:56;15.07;;;14.00;;
1975;SDS011;988;48.016;7.800;2023-05-10T15:52:22;14.87;;;14.20;;
1975;SDS011;988;48.016;7.800;2023-05-10T15:54:48;14.87;;;14.07;;
1975;SDS011;988;48.016;7.800;2023-05-10T15:57:14;14.50;;;13.70;;
1975;SDS011;988;48.016;7.800;2023-05-10T15:59:40;14.20;;;13.60;;